Time;durP1;ratioP1;P1;durP2;ratioP2;P2;SDS_P1;SDS_P2;PMS_P1;PMS_P2;Temp;Humidity;BMP_temperature;BMP_pressure;BME280_temperature;BME280_humidity;BME280_pressure;Samples;Min_cycle;Max_cycle;Signal;HPM_P1;HPM_P2
2023/08/29 00:04:30;;;;;;;3.30;1.95;;;;;;;;;;10505217;28;20377;-93
2023/08/29 00:09:33;;;;;;;2.67;1.63;;;;;;;;;;10526269;28;20048;-93
2023/08/29 00:14:35;;;;;;;2.75;1.70;;;;;;;;;;10533297;28;20062;-95
2023/08/29 00:19:39;;;;;;;1.98;1.45;;;;;;;;;;10536820;28;20063;-93
2023/08/29 00:24:44;;;;;;;1.83;1.40;;;;;;;;;;10509253;28;20054;-93
2023/08/29 00:29:46;;;;;;;;;;;;;;;;;;10530361;28;20044;-94
2023/08/29 00:34:50;;;;;;;2.70;2.03;;;;;;;;;;10510213;28;19931;-91
2023/08/29 00:39:53;;;;;;;3.25;2.20;;;;;;;;;;10516922;28;20044;-91
2023/08/29 00:44:56;;;;;;;3.72;2.15;;;;;;;;;;10541875;28;20117;-92
2023/08/29 00:50:00;;;;;;;2.65;2.15;;;;;;;;;;10546943;28;20170;-93
2023/08/29 00:55:03;;;;;;;4.25;1.95;;;;;;;;;;10554490;28;20105;-94
2023/08/29 01:00:10;;;;;;;2.33;2.00;;;;;;;;;;10554602;28;20493;-94
2023/08/29 01:11:27;;;;;;;2.67;2.05;;;;;;;;;;10557238;28;20032;-93
2023/08/29 01:16:35;;;;;;;3.78;2.30;;;;;;;;;;10525040;28;20032;-93
2023/08/29 01:21:48;;;;;;;3.08;2.13;;;;;;;;;;10523563;28;20047;-93
2023/08/29 01:26:55;;;;;;;3.13;2.00;;;;;;;;;;10509371;28;20040;-93
2023/08/29 01:32:03;;;;;;;3.50;2.10;;;;;;;;;;10496822;28;20056;-91
2023/08/29 01:37:06;;;;;;;2.33;1.75;;;;;;;;;;10519305;28;20452;-93
2023/08/29 01:42:18;;;;;;;2.90;1.95;;;;;;;;;;10506487;28;20059;-91
2023/08/29 01:47:23;;;;;;;2.92;2.05;;;;;;;;;;10525519;28;20040;-92
2023/08/29 01:52:31;;;;;;;2.38;1.73;;;;;;;;;;10519605;28;20055;-93
2023/08/29 01:57:37;;;;;;;2.17;1.75;;;;;;;;;;10522976;28;20043;-90
2023/08/29 02:02:41;;;;;;;1.85;1.50;;;;;;;;;;10504980;28;20064;-90
2023/08/29 02:07:50;;;;;;;2.60;1.63;;;;;;;;;;10518948;28;20485;-89
2023/08/29 02:13:01;;;;;;;1.85;1.42;;;;;;;;;;10507780;28;20109;-93
2023/08/29 02:18:05;;;;;;;2.75;1.80;;;;;;;;;;10527657;28;20044;-91
2023/08/29 02:23:10;;;;;;;2.33;1.60;;;;;;;;;;10531161;28;20551;-91
2023/08/29 02:28:18;;;;;;;2.55;1.73;;;;;;;;;;10533217;28;20036;-93
2023/08/29 02:33:24;;;;;;;2.95;1.52;;;;;;;;;;10520952;28;20457;-92
2023/08/29 02:38:32;;;;;;;2.22;1.65;;;;;;;;;;10511588;28;20075;-91
2023/08/29 02:43:40;;;;;;;1.92;1.63;;;;;;;;;;10518976;28;20051;-94
2023/08/29 02:48:44;;;;;;;2.33;1.65;;;;;;;;;;10512404;28;20044;-93
2023/08/29 02:53:50;;;;;;;5.15;1.88;;;;;;;;;;10533446;28;20058;-92
2023/08/29 02:58:59;;;;;;;2.25;1.70;;;;;;;;;;10516834;28;20493;-94
2023/08/29 03:04:02;;;;;;;4.13;1.60;;;;;;;;;;10516747;28;20394;-94
2023/08/29 03:09:11;;;;;;;2.60;1.77;;;;;;;;;;10530391;28;20136;-91
2023/08/29 03:14:19;;;;;;;2.20;1.65;;;;;;;;;;10537672;28;20107;-94
2023/08/29 03:19:34;;;;;;;3.20;2.15;;;;;;;;;;10519567;28;20039;-94
2023/08/29 03:24:41;;;;;;;3.08;2.13;;;;;;;;;;10506755;28;20271;-92
2023/08/29 03:29:59;;;;;;;3.33;2.03;;;;;;;;;;10519226;28;20105;-91
2023/08/29 03:35:03;;;;;;;3.58;1.88;;;;;;;;;;10549030;28;20074;-91
2023/08/29 03:40:11;;;;;;;4.30;2.40;;;;;;;;;;10561363;28;20032;-95
2023/08/29 03:45:20;;;;;;;3.17;2.00;;;;;;;;;;10533104;28;20040;-94
2023/08/29 03:50:26;;;;;;;3.72;2.38;;;;;;;;;;10516662;28;20082;-91
2023/08/29 03:55:31;;;;;;;4.03;2.10;;;;;;;;;;10503553;28;20481;-92
2023/08/29 04:00:46;;;;;;;3.80;2.35;;;;;;;;;;10524878;28;20051;-93
2023/08/29 04:05:57;;;;;;;3.72;2.22;;;;;;;;;;10535965;28;20032;-94
2023/08/29 04:11:07;;;;;;;4.00;2.00;;;;;;;;;;10518003;28;20095;-93
2023/08/29 04:16:28;;;;;;;3.90;2.33;;;;;;;;;;10546125;28;20439;-93
2023/08/29 04:21:35;;;;;;;3.65;2.08;;;;;;;;;;10525959;28;20040;-93
2023/08/29 04:26:43;;;;;;;3.90;2.15;;;;;;;;;;10504910;28;20063;-92
2023/08/29 04:31:55;;;;;;;3.30;1.90;;;;;;;;;;10526211;28;20137;-91
2023/08/29 04:37:00;;;;;;;3.28;1.90;;;;;;;;;;10489689;28;20194;-88
2023/08/29 04:42:08;;;;;;;2.83;1.80;;;;;;;;;;10512210;28;21003;-92
2023/08/29 04:47:17;;;;;;;2.85;1.98;;;;;;;;;;10503280;28;20040;-90
2023/08/29 04:52:25;;;;;;;3.33;2.15;;;;;;;;;;10532864;28;20462;-91
2023/08/29 04:57:31;;;;;;;2.15;1.70;;;;;;;;;;10512897;28;20087;-92
2023/08/29 05:02:47;;;;;;;2.20;1.52;;;;;;;;;;10511814;28;20044;-95
2023/08/29 05:07:51;;;;;;;2.13;1.50;;;;;;;;;;10540775;28;20103;-91
2023/08/29 05:12:56;;;;;;;2.15;1.55;;;;;;;;;;10534673;28;20068;-94
2023/08/29 05:18:06;;;;;;;2.88;1.38;;;;;;;;;;10498763;28;20081;-91
2023/08/29 05:23:10;;;;;;;2.15;1.40;;;;;;;;;;10508372;28;20079;-91
2023/08/29 05:28:20;;;;;;;1.83;1.35;;;;;;;;;;10522943;28;20064;-91
2023/08/29 05:33:27;;;;;;;2.10;1.20;;;;;;;;;;10521458;28;20108;-89
2023/08/29 05:38:40;;;;;;;1.60;1.23;;;;;;;;;;10528822;28;20694;-89
2023/08/29 05:43:44;;;;;;;2.28;1.60;;;;;;;;;;10518511;28;20555;-89
2023/08/29 05:48:49;;;;;;;2.97;1.70;;;;;;;;;;10509012;28;20044;-89
2023/08/29 05:53:59;;;;;;;2.15;1.55;;;;;;;;;;10526887;28;20064;-90
2023/08/29 05:59:02;;;;;;;3.03;1.45;;;;;;;;;;10507820;28;20055;-91
2023/08/29 06:04:12;;;;;;;1.42;1.20;;;;;;;;;;10516524;28;20504;-91
2023/08/29 06:09:20;;;;;;;1.70;1.33;;;;;;;;;;10533766;28;20067;-85
2023/08/29 06:14:34;;;;;;;1.23;0.80;;;;;;;;;;10525415;28;20167;-85
2023/08/29 06:19:47;;;;;;;0.90;0.70;;;;;;;;;;10509619;28;20527;-88
2023/08/29 06:24:55;;;;;;;1.20;0.85;;;;;;;;;;10524224;28;20136;-86
2023/08/29 06:30:12;;;;;;;1.25;1.00;;;;;;;;;;10520848;28;20476;-84
2023/08/29 06:35:23;;;;;;;1.63;1.10;;;;;;;;;;10498321;28;20626;-85
2023/08/29 06:40:33;;;;;;;0.82;0.80;;;;;;;;;;10502234;28;20062;-84
2023/08/29 06:45:41;;;;;;;1.80;1.40;;;;;;;;;;10500564;28;20037;-83
2023/08/29 06:50:51;;;;;;;1.77;1.60;;;;;;;;;;10507727;28;20055;-83
2023/08/29 06:55:56;;;;;;;3.70;2.17;;;;;;;;;;10488647;28;20797;-85
2023/08/29 07:00:59;;;;;;;4.07;2.45;;;;;;;;;;10503860;28;20068;-83
2023/08/29 07:06:19;;;;;;;2.10;1.73;;;;;;;;;;10493686;28;20036;-80
2023/08/29 07:11:23;;;;;;;3.13;1.70;;;;;;;;;;10509565;28;20048;-84
2023/08/29 07:16:30;;;;;;;1.70;1.55;;;;;;;;;;10486023;28;20033;-85
2023/08/29 07:21:37;;;;;;;2.72;2.03;;;;;;;;;;10518344;28;20048;-84
2023/08/29 07:26:47;;;;;;;2.67;1.50;;;;;;;;;;10506398;28;20047;-86
2023/08/29 07:31:59;;;;;;;2.63;2.00;;;;;;;;;;10514779;28;20066;-85
2023/08/29 07:37:09;;;;;;;1.88;1.60;;;;;;;;;;10515182;28;20488;-83
2023/08/29 07:42:23;;;;;;;2.05;1.40;;;;;;;;;;10518973;28;20040;-84
2023/08/29 07:47:40;;;;;;;1.58;1.38;;;;;;;;;;10516393;28;20040;-84
2023/08/29 07:52:48;;;;;;;2.08;1.50;;;;;;;;;;10515979;28;20400;-84
2023/08/29 07:57:59;;;;;;;1.80;1.30;;;;;;;;;;10509391;28;20502;-83
2023/08/29 08:03:11;;;;;;;1.20;1.10;;;;;;;;;;10491994;28;20037;-83
2023/08/29 08:08:22;;;;;;;1.58;1.15;;;;;;;;;;10489697;28;20531;-83
2023/08/29 08:13:28;;;;;;;1.65;0.95;;;;;;;;;;10512581;28;20173;-84
2023/08/29 08:18:39;;;;;;;1.00;1.00;;;;;;;;;;10507027;28;20502;-83
2023/08/29 08:23:49;;;;;;;0.90;0.90;;;;;;;;;;10510593;28;20044;-84
2023/08/29 08:28:54;;;;;;;0.90;0.90;;;;;;;;;;10484821;28;20043;-84
2023/08/29 08:34:00;;;;;;;1.00;0.95;;;;;;;;;;10495170;28;20539;-84
2023/08/29 08:39:07;;;;;;;0.90;0.90;;;;;;;;;;10515326;28;20534;-84
2023/08/29 08:44:15;;;;;;;0.75;0.75;;;;;;;;;;10495135;28;20068;-87
2023/08/29 08:49:27;;;;;;;1.02;0.80;;;;;;;;;;10518279;28;20477;-82
2023/08/29 08:54:38;;;;;;;0.65;0.65;;;;;;;;;;10497517;28;20090;-83
2023/08/29 08:59:45;;;;;;;0.55;0.55;;;;;;;;;;10491619;28;20048;-84
2023/08/29 09:04:53;;;;;;;0.73;0.70;;;;;;;;;;10510855;28;20058;-83
2023/08/29 09:10:19;;;;;;;0.52;0.52;;;;;;;;;;10496934;28;20615;-84
2023/08/29 09:15:44;;;;;;;0.30;0.30;;;;;;;;;;10514063;28;20237;-84
2023/08/29 09:20:51;;;;;;;0.30;0.30;;;;;;;;;;10493811;28;20059;-83
2023/08/29 09:26:00;;;;;;;0.63;0.40;;;;;;;;;;10497745;28;20048;-84
2023/08/29 09:31:05;;;;;;;0.70;0.57;;;;;;;;;;10503569;28;20046;-84
2023/08/29 09:36:17;;;;;;;0.75;0.60;;;;;;;;;;10513020;28;20052;-84
2023/08/29 09:41:25;;;;;;;0.80;0.52;;;;;;;;;;10493912;28;20043;-88
2023/08/29 09:46:30;;;;;;;0.85;0.85;;;;;;;;;;10495500;28;20418;-88
2023/08/29 09:52:01;;;;;;;1.63;1.20;;;;;;;;;;10511299;28;20068;-85
2023/08/29 09:57:24;;;;;;;1.02;0.90;;;;;;;;;;10495750;28;20547;-86
2023/08/29 10:02:54;;;;;;;1.60;1.13;;;;;;;;;;10512679;28;20129;-85
2023/08/29 10:08:06;;;;;;;1.42;1.00;;;;;;;;;;10515161;28;20028;-85
2023/08/29 10:13:28;;;;;;;0.93;0.52;;;;;;;;;;10496323;28;20049;-84
2023/08/29 10:18:36;;;;;;;1.52;0.77;;;;;;;;;;10515663;28;20045;-86
2023/08/29 10:23:57;;;;;;;1.52;1.23;;;;;;;;;;10503894;28;20051;-83
2023/08/29 10:29:05;;;;;;;3.33;1.45;;;;;;;;;;10513652;28;20397;-85
2023/08/29 10:34:08;;;;;;;3.85;1.80;;;;;;;;;;10497102;28;20108;-85
2023/08/29 10:39:16;;;;;;;1.00;0.80;;;;;;;;;;10494126;28;20127;-86
2023/08/29 10:44:47;;;;;;;1.73;0.73;;;;;;;;;;10517068;28;20494;-84
2023/08/29 10:50:02;;;;;;;0.82;0.50;;;;;;;;;;10506882;28;20900;-85
2023/08/29 10:55:29;;;;;;;0.50;0.50;;;;;;;;;;10515004;28;20043;-86
2023/08/29 11:00:52;;;;;;;0.93;0.68;;;;;;;;;;10520202;28;20047;-86
2023/08/29 11:05:59;;;;;;;1.60;1.00;;;;;;;;;;10518312;28;20102;-88
2023/08/29 11:11:16;;;;;;;1.10;0.80;;;;;;;;;;10511807;28;20040;-91
2023/08/29 11:16:19;;;;;;;0.80;0.80;;;;;;;;;;10496829;28;20439;-86
2023/08/29 11:21:30;;;;;;;2.05;0.77;;;;;;;;;;10501486;28;20071;-87
2023/08/29 11:26:35;;;;;;;0.60;0.60;;;;;;;;;;10512062;28;20155;-92
2023/08/29 11:31:45;;;;;;;0.95;0.90;;;;;;;;;;10510169;28;20112;-87
2023/08/29 11:36:52;;;;;;;1.20;1.00;;;;;;;;;;10518374;28;20042;-85
2023/08/29 11:42:15;;;;;;;4.18;2.20;;;;;;;;;;10512424;28;20128;-86
2023/08/29 11:47:45;;;;;;;0.80;0.80;;;;;;;;;;10515052;28;20040;-86
2023/08/29 11:52:50;;;;;;;1.00;0.90;;;;;;;;;;10508927;28;20553;-86
2023/08/29 11:57:58;;;;;;;0.63;0.63;;;;;;;;;;10496379;28;20699;-85
2023/08/29 12:03:03;;;;;;;1.42;1.00;;;;;;;;;;10487808;28;20161;-85
2023/08/29 12:08:09;;;;;;;1.08;1.00;;;;;;;;;;10475594;28;20036;-85
2023/08/29 12:13:26;;;;;;;1.05;0.90;;;;;;;;;;10509910;28;20040;-85
2023/08/29 12:18:33;;;;;;;0.80;0.80;;;;;;;;;;10502620;28;20047;-84
2023/08/29 12:24:01;;;;;;;1.23;0.90;;;;;;;;;;10510339;28;20475;-85
2023/08/29 12:29:04;;;;;;;0.82;0.70;;;;;;;;;;10516150;28;20139;-85
2023/08/29 12:34:07;;;;;;;;;;;;;;;;;;10493468;28;20040;-85
2023/08/29 12:39:19;;;;;;;0.90;0.85;;;;;;;;;;10496180;28;19999;-84
2023/08/29 12:44:27;;;;;;;1.48;0.90;;;;;;;;;;10512877;28;20102;-85
2023/08/29 12:49:32;;;;;;;0.95;0.85;;;;;;;;;;10511082;28;20041;-85
2023/08/29 12:54:41;;;;;;;0.80;0.80;;;;;;;;;;10513522;28;20184;-84
2023/08/29 12:59:47;;;;;;;0.80;0.70;;;;;;;;;;10513997;28;20096;-85
2023/08/29 13:04:53;;;;;;;1.60;0.77;;;;;;;;;;10514001;28;20405;-85
2023/08/29 13:10:06;;;;;;;0.88;0.80;;;;;;;;;;10514511;28;20044;-86
2023/08/29 13:15:15;;;;;;;1.25;1.10;;;;;;;;;;10518861;28;20040;-86
2023/08/29 13:20:21;;;;;;;1.63;1.00;;;;;;;;;;10517432;28;20116;-86
2023/08/29 13:25:41;;;;;;;1.38;1.20;;;;;;;;;;10514840;28;20118;-85
2023/08/29 13:30:45;;;;;;;1.45;0.90;;;;;;;;;;10497205;28;20547;-86
2023/08/29 13:35:50;;;;;;;1.40;1.25;;;;;;;;;;10493680;28;20044;-85
2023/08/29 13:41:16;;;;;;;1.35;1.25;;;;;;;;;;10496728;28;20101;-85
2023/08/29 13:46:29;;;;;;;1.70;1.27;;;;;;;;;;10508211;28;20120;-85
2023/08/29 13:51:41;;;;;;;1.13;1.02;;;;;;;;;;10485100;28;20032;-85
2023/08/29 13:56:49;;;;;;;1.20;1.10;;;;;;;;;;10492552;28;20509;-85
2023/08/29 14:01:58;;;;;;;1.00;0.82;;;;;;;;;;10503731;28;20070;-83
2023/08/29 14:07:05;;;;;;;2.80;1.17;;;;;;;;;;10502407;28;20054;-85
2023/08/29 14:12:14;;;;;;;1.90;1.15;;;;;;;;;;10506593;28;20060;-84
2023/08/29 14:17:24;;;;;;;2.15;1.20;;;;;;;;;;10495354;28;20298;-84
2023/08/29 14:22:29;;;;;;;0.80;0.80;;;;;;;;;;10491178;28;20126;-85
2023/08/29 14:27:38;;;;;;;0.70;0.70;;;;;;;;;;10470800;28;20036;-85
2023/08/29 14:32:45;;;;;;;0.70;0.70;;;;;;;;;;10496087;28;20047;-86
2023/08/29 14:37:51;;;;;;;1.48;1.10;;;;;;;;;;10505936;28;20048;-85
2023/08/29 14:43:04;;;;;;;1.48;1.30;;;;;;;;;;10505425;28;20049;-85
2023/08/29 14:48:11;;;;;;;1.45;1.23;;;;;;;;;;10473994;28;20492;-84
2023/08/29 14:53:17;;;;;;;1.77;1.50;;;;;;;;;;10489892;28;20097;-85
2023/08/29 14:58:27;;;;;;;1.85;1.70;;;;;;;;;;10499146;28;20125;-85
2023/08/29 15:03:39;;;;;;;2.90;2.00;;;;;;;;;;10494968;28;20610;-85
2023/08/29 15:08:43;;;;;;;3.78;2.30;;;;;;;;;;10514349;28;20591;-86
2023/08/29 15:13:58;;;;;;;4.07;1.73;;;;;;;;;;10519242;28;20047;-85
2023/08/29 15:19:13;;;;;;;2.25;1.40;;;;;;;;;;10471986;28;20036;-87
2023/08/29 15:24:19;;;;;;;2.95;1.50;;;;;;;;;;10516648;28;20202;-86
2023/08/29 15:29:27;;;;;;;4.68;2.20;;;;;;;;;;10519455;28;20147;-87
2023/08/29 15:34:32;;;;;;;12.80;7.05;;;;;;;;;;10503000;28;20055;-88
2023/08/29 15:39:38;;;;;;;2.60;1.55;;;;;;;;;;10527378;28;20075;-88
2023/08/29 15:45:05;;;;;;;2.05;1.20;;;;;;;;;;10527304;28;20040;-89
2023/08/29 15:50:30;;;;;;;1.42;1.20;;;;;;;;;;10523095;28;20040;-89
2023/08/29 15:55:38;;;;;;;3.40;1.80;;;;;;;;;;10509826;28;20032;-88
2023/08/29 16:00:45;;;;;;;3.40;1.55;;;;;;;;;;10507477;28;20465;-86
2023/08/29 16:06:04;;;;;;;1.55;1.13;;;;;;;;;;10523731;28;20043;-89
2023/08/29 16:11:09;;;;;;;2.78;1.42;;;;;;;;;;10506420;28;20155;-88
2023/08/29 16:16:22;;;;;;;1.83;1.08;;;;;;;;;;10508901;28;20051;-89
2023/08/29 16:21:30;;;;;;;1.42;0.93;;;;;;;;;;10505904;28;20065;-89
2023/08/29 16:26:40;;;;;;;1.42;1.20;;;;;;;;;;10523897;28;20056;-87
2023/08/29 16:31:47;;;;;;;4.72;1.60;;;;;;;;;;10487031;28;20039;-89
2023/08/29 16:36:56;;;;;;;2.85;1.27;;;;;;;;;;10515978;28;20169;-88
2023/08/29 16:42:01;;;;;;;1.42;1.23;;;;;;;;;;10508086;28;20056;-87
2023/08/29 16:47:09;;;;;;;1.73;1.10;;;;;;;;;;10501872;28;20677;-88
2023/08/29 16:52:31;;;;;;;4.97;2.60;;;;;;;;;;10502174;28;20429;-81
2023/08/29 16:57:39;;;;;;;2.50;1.48;;;;;;;;;;10491559;28;20044;-80
2023/08/29 17:02:44;;;;;;;2.17;1.70;;;;;;;;;;10502535;28;20039;-80
2023/08/29 17:07:57;;;;;;;3.60;1.92;;;;;;;;;;10521962;28;20351;-81
2023/08/29 17:13:01;;;;;;;2.60;1.90;;;;;;;;;;10499155;28;20122;-80
2023/08/29 17:18:23;;;;;;;3.28;1.88;;;;;;;;;;10524545;28;20040;-81
2023/08/29 17:23:32;;;;;;;;;;;;;;;;;;10526711;28;20462;-82
2023/08/29 17:28:44;;;;;;;4.63;2.30;;;;;;;;;;10502711;28;19928;-82
2023/08/29 17:33:51;;;;;;;7.38;3.90;;;;;;;;;;10523341;28;20139;-82
2023/08/29 17:39:00;;;;;;;5.45;2.35;;;;;;;;;;10488748;28;20044;-82
2023/08/29 17:44:07;;;;;;;5.47;2.92;;;;;;;;;;10519567;28;20036;-82
2023/08/29 17:49:11;;;;;;;4.63;2.60;;;;;;;;;;10515394;28;20126;-80
2023/08/29 17:54:16;;;;;;;6.70;3.25;;;;;;;;;;10508685;28;20131;-80
2023/08/29 17:59:25;;;;;;;5.45;2.75;;;;;;;;;;10505219;28;20067;-81
2023/08/29 18:04:29;;;;;;;5.88;3.55;;;;;;;;;;10522775;28;20055;-81
2023/08/29 18:09:36;;;;;;;7.22;3.22;;;;;;;;;;10525694;28;20109;-80
2023/08/29 18:14:47;;;;;;;6.97;2.90;;;;;;;;;;10503035;28;20048;-82
2023/08/29 18:19:56;;;;;;;6.18;2.95;;;;;;;;;;10522723;28;20055;-83
2023/08/29 18:30:30;;;;;;;4.35;2.65;;;;;;;;;;10519117;28;20052;-82
2023/08/29 18:35:39;;;;;;;5.43;2.75;;;;;;;;;;10515653;28;20048;-81
2023/08/29 18:40:50;;;;;;;6.97;3.10;;;;;;;;;;10503951;28;20040;-81
2023/08/29 18:45:56;;;;;;;5.18;3.13;;;;;;;;;;10481876;28;20044;-83
2023/08/29 18:51:02;;;;;;;5.35;2.95;;;;;;;;;;10495849;28;20040;-81
2023/08/29 18:56:13;;;;;;;;;;;;;;;;;;10498210;28;20140;-81
2023/08/29 19:01:32;;;;;;;5.38;2.97;;;;;;;;;;10509716;28;19920;-82
2023/08/29 19:06:36;;;;;;;8.00;3.20;;;;;;;;;;10524341;28;20043;-88
2023/08/29 19:11:42;;;;;;;8.00;4.32;;;;;;;;;;10533852;28;20056;-88
2023/08/29 19:16:47;;;;;;;6.50;3.40;;;;;;;;;;10509748;28;20101;-86
2023/08/29 19:21:54;;;;;;;5.88;2.70;;;;;;;;;;10519174;28;20573;-88
2023/08/29 19:27:09;;;;;;;6.63;2.72;;;;;;;;;;10512231;28;20039;-89
2023/08/29 19:32:28;;;;;;;4.90;2.72;;;;;;;;;;10521146;28;20033;-89
2023/08/29 19:37:41;;;;;;;5.85;3.10;;;;;;;;;;10504248;28;20052;-88
2023/08/29 19:42:45;;;;;;;5.10;2.97;;;;;;;;;;10507082;28;20040;-87
2023/08/29 19:47:51;;;;;;;5.85;2.90;;;;;;;;;;10525147;28;20044;-87
2023/08/29 19:52:58;;;;;;;5.63;3.30;;;;;;;;;;10521295;28;20036;-87
2023/08/29 19:58:01;;;;;;;9.88;3.40;;;;;;;;;;10519935;28;20763;-85
2023/08/29 20:03:07;;;;;;;4.28;2.95;;;;;;;;;;10489188;28;20043;-88
2023/08/29 20:08:14;;;;;;;7.47;4.00;;;;;;;;;;10524819;28;20067;-86
2023/08/29 20:13:22;;;;;;;7.88;4.05;;;;;;;;;;10525081;28;20044;-87
2023/08/29 20:18:37;;;;;;;4.57;2.10;;;;;;;;;;10489737;28;20052;-89
2023/08/29 20:23:42;;;;;;;7.13;4.10;;;;;;;;;;10533911;28;20036;-95
2023/08/29 20:29:03;;;;;;;8.38;4.25;;;;;;;;;;10515647;28;20105;-95
2023/08/29 20:34:32;;;;;;;6.95;3.63;;;;;;;;;;10495397;28;20584;-95
2023/08/29 20:39:45;;;;;;;8.63;4.20;;;;;;;;;;10532285;28;20067;-92
2023/08/29 20:44:57;;;;;;;6.82;3.60;;;;;;;;;;10518646;28;20045;-91
2023/08/29 20:50:05;;;;;;;6.25;3.60;;;;;;;;;;10525285;28;20532;-89
2023/08/29 20:55:24;;;;;;;4.75;3.33;;;;;;;;;;10517651;28;20135;-89
2023/08/29 21:00:35;;;;;;;7.38;3.90;;;;;;;;;;10510218;28;20036;-90
2023/08/29 21:05:45;;;;;;;6.93;3.35;;;;;;;;;;10526402;28;20039;-90
2023/08/29 21:10:58;;;;;;;6.63;3.75;;;;;;;;;;10516524;28;20032;-94
2023/08/29 21:16:05;;;;;;;5.93;2.55;;;;;;;;;;10516064;28;20071;-90
2023/08/29 21:21:15;;;;;;;8.82;4.25;;;;;;;;;;10535664;28;20039;-91
2023/08/29 21:26:33;;;;;;;10.45;4.97;;;;;;;;;;10528016;28;20545;-91
2023/08/29 21:31:50;;;;;;;9.75;4.90;;;;;;;;;;10523355;28;20500;-87
2023/08/29 21:37:03;;;;;;;12.00;6.35;;;;;;;;;;10505687;28;20131;-87
2023/08/29 21:42:20;;;;;;;11.00;5.03;;;;;;;;;;10518923;28;20051;-90
2023/08/29 21:47:41;;;;;;;10.68;6.38;;;;;;;;;;10507684;28;20036;-89
2023/08/29 21:52:53;;;;;;;11.18;5.47;;;;;;;;;;10522073;28;20055;-90
2023/08/29 21:57:59;;;;;;;12.80;5.88;;;;;;;;;;10486492;28;20048;-90
2023/08/29 22:03:03;;;;;;;11.05;5.22;;;;;;;;;;10521778;28;20063;-89
2023/08/29 22:08:09;;;;;;;11.45;6.47;;;;;;;;;;10517696;28;20056;-87
2023/08/29 22:13:22;;;;;;;16.00;7.72;;;;;;;;;;10503369;28;20103;-88
2023/08/29 22:18:42;;;;;;;15.70;7.85;;;;;;;;;;10519243;28;20062;-89
2023/08/29 22:23:50;;;;;;;18.35;8.90;;;;;;;;;;10518503;28;20028;-88
2023/08/29 22:28:59;;;;;;;15.48;8.23;;;;;;;;;;10513690;28;20121;-87
2023/08/29 22:34:03;;;;;;;15.85;8.70;;;;;;;;;;10481593;28;20465;-87
2023/08/29 22:39:06;;;;;;;;;;;;;;;;;;10520804;28;20051;-88
2023/08/29 22:44:37;;;;;;;15.60;8.30;;;;;;;;;;10499850;28;19924;-90
2023/08/29 22:49:48;;;;;;;16.20;8.02;;;;;;;;;;10516173;28;20055;-92
2023/08/29 22:54:53;;;;;;;16.73;8.45;;;;;;;;;;10514258;28;20095;-90
2023/08/29 23:00:00;;;;;;;17.60;8.32;;;;;;;;;;10533794;28;20123;-91
2023/08/29 23:05:22;;;;;;;16.05;7.65;;;;;;;;;;10500479;28;20062;-90
2023/08/29 23:10:27;;;;;;;15.35;7.95;;;;;;;;;;10526955;28;20089;-89
2023/08/29 23:15:49;;;;;;;14.70;7.55;;;;;;;;;;10512239;28;20040;-90
2023/08/29 23:20:57;;;;;;;17.92;8.45;;;;;;;;;;10511154;28;20071;-90
2023/08/29 23:26:09;;;;;;;16.83;9.07;;;;;;;;;;10530309;28;20105;-90
2023/08/29 23:31:14;;;;;;;16.50;8.50;;;;;;;;;;10530627;28;20043;-90
2023/08/29 23:36:20;;;;;;;16.30;7.93;;;;;;;;;;10533538;28;20476;-90
2023/08/29 23:41:30;;;;;;;15.52;7.57;;;;;;;;;;10509001;28;20060;-89
2023/08/29 23:46:34;;;;;;;16.33;7.15;;;;;;;;;;10529309;28;20048;-91
2023/08/29 23:51:39;;;;;;;16.30;7.57;;;;;;;;;;10511724;28;20237;-89
2023/08/29 23:56:49;;;;;;;15.13;7.13;;;;;;;;;;10532178;28;20469;-91
